sensor_id;sensor_type;location;lat;lon;timestamp;P1;durP1;ratioP1;P2;durP2;ratioP2
20857;SDS011;10589;53.636;10.012;2023-12-04T04:47:04;26.53;;;14.77;;
20857;SDS011;10589;53.636;10.012;2023-12-04T04:49:29;25.93;;;14.67;;
20857;SDS011;10589;53.636;10.012;2023-12-04T04:51:55;26.20;;;14.03;;
20857;SDS011;10589;53.636;10.012;2023-12-04T04:54:20;24.83;;;13.73;;
20857;SDS011;10589;53.636;10.012;2023-12-04T04:56:46;25.97;;;13.67;;
20857;SDS011;10589;53.636;10.012;2023-12-04T04:59:11;25.00;;;14.20;;
20857;SDS011;10589;53.636;10.012;2023-12-04T05:01:37;29.13;;;13.47;;
20857;SDS011;10589;53.636;10.012;2023-12-04T05:04:03;26.23;;;13.67;;
20857;SDS011;10589;53.636;10.012;2023-12-04T05:06:28;30.23;;;14.43;;
20857;SDS011;10589;53.636;10.012;2023-12-04T05:08:55;29.60;;;14.17;;
20857;SDS011;10589;53.636;10.012;2023-12-04T05:11:21;25.97;;;13.77;;
20857;SDS011;10589;53.636;10.012;2023-12-04T05:13:46;26.57;;;13.83;;
20857;SDS011;10589;53.636;10.012;2023-12-04T05:16:12;25.57;;;13.53;;
20857;SDS011;10589;53.636;10.012;2023-12-04T05:18:38;29.87;;;14.37;;
20857;SDS011;10589;53.636;10.012;2023-12-04T05:21:07;28.50;;;14.00;;
20857;SDS011;10589;53.636;10.012;2023-12-04T05:23:34;25.07;;;13.53;;
20857;SDS011;10589;53.636;10.012;2023-12-04T05:26:00;24.27;;;13.17;;
20857;SDS011;10589;53.636;10.012;2023-12-04T05:28:25;21.83;;;13.10;;
20857;SDS011;10589;53.636;10.012;2023-12-04T05:30:51;24.57;;;13.23;;
20857;SDS011;10589;53.636;10.012;2023-12-04T05:33:16;23.43;;;13.40;;
20857;SDS011;10589;53.636;10.012;2023-12-04T05:35:42;24.43;;;12.60;;
20857;SDS011;10589;53.636;10.012;2023-12-04T05:38:08;22.67;;;11.90;;
20857;SDS011;10589;53.636;10.012;2023-12-04T05:40:33;25.70;;;13.07;;
20857;SDS011;10589;53.636;10.012;2023-12-04T05:42:59;22.37;;;13.33;;
20857;SDS011;10589;53.636;10.012;2023-12-04T05:45:25;25.93;;;13.60;;
20857;SDS011;10589;53.636;10.012;2023-12-04T05:47:50;24.37;;;12.90;;
20857;SDS011;10589;53.636;10.012;2023-12-04T05:50:17;27.07;;;12.93;;
20857;SDS011;10589;53.636;10.012;2023-12-04T05:52:43;21.33;;;11.97;;
20857;SDS011;10589;53.636;10.012;2023-12-04T05:55:09;25.50;;;13.07;;
20857;SDS011;10589;53.636;10.012;2023-12-04T05:57:35;25.77;;;12.57;;
20857;SDS011;10589;53.636;10.012;2023-12-04T06:00:00;26.90;;;13.70;;
20857;SDS011;10589;53.636;10.012;2023-12-04T06:02:26;24.80;;;13.80;;
20857;SDS011;10589;53.636;10.012;2023-12-04T06:04:55;21.80;;;13.17;;
20857;SDS011;10589;53.636;10.012;2023-12-04T06:07:20;23.13;;;12.70;;
20857;SDS011;10589;53.636;10.012;2023-12-04T06:09:46;22.43;;;12.33;;
20857;SDS011;10589;53.636;10.012;2023-12-04T06:12:12;24.37;;;12.03;;
20857;SDS011;10589;53.636;10.012;2023-12-04T06:14:37;21.43;;;12.67;;
20857;SDS011;10589;53.636;10.012;2023-12-04T06:17:03;22.07;;;12.37;;
20857;SDS011;10589;53.636;10.012;2023-12-04T06:19:31;22.27;;;12.90;;
20857;SDS011;10589;53.636;10.012;2023-12-04T06:21:57;20.93;;;12.03;;
20857;SDS011;10589;53.636;10.012;2023-12-04T06:24:23;22.43;;;12.23;;
20857;SDS011;10589;53.636;10.012;2023-12-04T06:26:49;21.37;;;12.37;;
20857;SDS011;10589;53.636;10.012;2023-12-04T06:29:15;21.87;;;12.27;;
20857;SDS011;10589;53.636;10.012;2023-12-04T06:31:41;23.23;;;12.13;;
20857;SDS011;10589;53.636;10.012;2023-12-04T06:34:07;24.13;;;13.47;;
20857;SDS011;10589;53.636;10.012;2023-12-04T06:36:35;31.03;;;14.93;;
20857;SDS011;10589;53.636;10.012;2023-12-04T06:39:04;24.50;;;13.27;;
20857;SDS011;10589;53.636;10.012;2023-12-04T06:41:33;31.47;;;14.77;;
20857;SDS011;10589;53.636;10.012;2023-12-04T06:43:59;27.43;;;13.97;;
20857;SDS011;10589;53.636;10.012;2023-12-04T06:46:25;29.50;;;14.63;;
20857;SDS011;10589;53.636;10.012;2023-12-04T06:48:54;27.43;;;14.93;;
20857;SDS011;10589;53.636;10.012;2023-12-04T06:51:22;26.30;;;14.63;;
20857;SDS011;10589;53.636;10.012;2023-12-04T06:53:47;31.57;;;15.30;;
20857;SDS011;10589;53.636;10.012;2023-12-04T06:56:14;27.80;;;14.60;;
20857;SDS011;10589;53.636;10.012;2023-12-04T06:58:40;29.00;;;15.23;;
20857;SDS011;10589;53.636;10.012;2023-12-04T07:01:06;29.60;;;15.37;;
20857;SDS011;10589;53.636;10.012;2023-12-04T07:03:32;33.63;;;16.43;;
20857;SDS011;10589;53.636;10.012;2023-12-04T07:05:57;29.80;;;15.20;;
20857;SDS011;10589;53.636;10.012;2023-12-04T07:08:23;32.17;;;15.50;;
20857;SDS011;10589;53.636;10.012;2023-12-04T07:10:49;32.23;;;15.67;;
20857;SDS011;10589;53.636;10.012;2023-12-04T07:13:15;31.30;;;15.60;;
20857;SDS011;10589;53.636;10.012;2023-12-04T07:15:41;33.57;;;16.70;;
20857;SDS011;10589;53.636;10.012;2023-12-04T07:18:06;31.87;;;16.47;;
20857;SDS011;10589;53.636;10.012;2023-12-04T07:20:32;36.17;;;16.77;;
20857;SDS011;10589;53.636;10.012;2023-12-04T07:22:57;35.83;;;16.60;;
20857;SDS011;10589;53.636;10.012;2023-12-04T07:25:24;33.87;;;16.17;;
20857;SDS011;10589;53.636;10.012;2023-12-04T07:27:49;31.87;;;15.77;;
20857;SDS011;10589;53.636;10.012;2023-12-04T07:30:15;29.47;;;16.13;;
20857;SDS011;10589;53.636;10.012;2023-12-04T07:32:41;32.53;;;16.87;;
20857;SDS011;10589;53.636;10.012;2023-12-04T07:35:07;36.93;;;17.43;;
20857;SDS011;10589;53.636;10.012;2023-12-04T07:37:32;32.40;;;17.93;;
20857;SDS011;10589;53.636;10.012;2023-12-04T07:39:58;34.63;;;17.63;;
20857;SDS011;10589;53.636;10.012;2023-12-04T07:42:24;39.87;;;18.47;;
20857;SDS011;10589;53.636;10.012;2023-12-04T07:44:49;31.90;;;16.27;;
20857;SDS011;10589;53.636;10.012;2023-12-04T07:47:15;35.30;;;17.83;;
20857;SDS011;10589;53.636;10.012;2023-12-04T07:49:41;38.93;;;17.73;;
20857;SDS011;10589;53.636;10.012;2023-12-04T07:52:07;38.13;;;19.07;;
20857;SDS011;10589;53.636;10.012;2023-12-04T07:54:33;33.40;;;17.70;;
20857;SDS011;10589;53.636;10.012;2023-12-04T07:56:59;37.20;;;18.97;;
20857;SDS011;10589;53.636;10.012;2023-12-04T07:59:24;32.83;;;17.67;;
20857;SDS011;10589;53.636;10.012;2023-12-04T08:01:51;38.40;;;17.43;;
20857;SDS011;10589;53.636;10.012;2023-12-04T08:04:16;33.70;;;17.47;;
20857;SDS011;10589;53.636;10.012;2023-12-04T08:06:42;36.63;;;18.53;;
20857;SDS011;10589;53.636;10.012;2023-12-04T08:09:08;38.53;;;18.17;;
20857;SDS011;10589;53.636;10.012;2023-12-04T08:11:35;34.63;;;17.33;;
20857;SDS011;10589;53.636;10.012;2023-12-04T08:14:02;39.10;;;17.60;;
20857;SDS011;10589;53.636;10.012;2023-12-04T08:16:28;37.47;;;18.13;;
20857;SDS011;10589;53.636;10.012;2023-12-04T08:18:54;34.33;;;17.47;;
20857;SDS011;10589;53.636;10.012;2023-12-04T08:21:20;36.83;;;17.57;;
20857;SDS011;10589;53.636;10.012;2023-12-04T08:23:46;34.30;;;17.50;;
20857;SDS011;10589;53.636;10.012;2023-12-04T08:26:11;32.67;;;17.17;;
20857;SDS011;10589;53.636;10.012;2023-12-04T08:28:37;36.57;;;18.13;;
20857;SDS011;10589;53.636;10.012;2023-12-04T08:31:06;32.20;;;17.30;;
20857;SDS011;10589;53.636;10.012;2023-12-04T08:33:33;33.77;;;16.73;;
20857;SDS011;10589;53.636;10.012;2023-12-04T08:36:00;32.17;;;16.90;;
20857;SDS011;10589;53.636;10.012;2023-12-04T08:38:26;36.00;;;16.53;;
20857;SDS011;10589;53.636;10.012;2023-12-04T08:40:52;34.70;;;16.43;;
20857;SDS011;10589;53.636;10.012;2023-12-04T08:43:18;34.60;;;17.40;;
20857;SDS011;10589;53.636;10.012;2023-12-04T08:45:47;34.20;;;17.47;;
20857;SDS011;10589;53.636;10.012;2023-12-04T08:48:13;32.57;;;16.63;;
20857;SDS011;10589;53.636;10.012;2023-12-04T08:50:39;38.73;;;16.53;;
20857;SDS011;10589;53.636;10.012;2023-12-04T08:53:05;34.50;;;16.70;;
20857;SDS011;10589;53.636;10.012;2023-12-04T08:55:31;33.17;;;16.87;;
20857;SDS011;10589;53.636;10.012;2023-12-04T08:57:57;33.70;;;16.80;;
20857;SDS011;10589;53.636;10.012;2023-12-04T09:00:26;32.03;;;16.40;;
20857;SDS011;10589;53.636;10.012;2023-12-04T09:02:54;31.67;;;16.57;;
20857;SDS011;10589;53.636;10.012;2023-12-04T09:05:25;30.97;;;15.93;;
20857;SDS011;10589;53.636;10.012;2023-12-04T09:07:51;31.93;;;15.43;;
20857;SDS011;10589;53.636;10.012;2023-12-04T09:10:19;31.90;;;16.10;;
20857;SDS011;10589;53.636;10.012;2023-12-04T09:12:54;30.47;;;15.47;;
20857;SDS011;10589;53.636;10.012;2023-12-04T09:15:20;35.83;;;17.77;;
20857;SDS011;10589;53.636;10.012;2023-12-04T09:17:45;31.77;;;16.30;;
20857;SDS011;10589;53.636;10.012;2023-12-04T09:20:11;30.63;;;16.37;;
20857;SDS011;10589;53.636;10.012;2023-12-04T09:22:40;27.90;;;15.30;;
20857;SDS011;10589;53.636;10.012;2023-12-04T09:25:06;33.00;;;16.30;;
20857;SDS011;10589;53.636;10.012;2023-12-04T09:27:36;32.07;;;16.97;;
20857;SDS011;10589;53.636;10.012;2023-12-04T09:30:02;25.93;;;15.10;;
20857;SDS011;10589;53.636;10.012;2023-12-04T09:32:32;30.70;;;16.17;;
20857;SDS011;10589;53.636;10.012;2023-12-04T09:35:04;30.47;;;15.90;;
20857;SDS011;10589;53.636;10.012;2023-12-04T09:37:34;32.10;;;16.53;;
20857;SDS011;10589;53.636;10.012;2023-12-04T09:40:03;28.37;;;16.17;;
20857;SDS011;10589;53.636;10.012;2023-12-04T09:42:31;30.03;;;16.13;;
20857;SDS011;10589;53.636;10.012;2023-12-04T09:45:01;32.53;;;15.53;;
20857;SDS011;10589;53.636;10.012;2023-12-04T09:47:37;33.40;;;16.53;;
20857;SDS011;10589;53.636;10.012;2023-12-04T09:50:03;27.53;;;15.43;;
20857;SDS011;10589;53.636;10.012;2023-12-04T09:52:34;30.27;;;17.13;;
20857;SDS011;10589;53.636;10.012;2023-12-04T09:55:11;32.03;;;16.33;;
20857;SDS011;10589;53.636;10.012;2023-12-04T09:57:37;29.63;;;16.27;;
20857;SDS011;10589;53.636;10.012;2023-12-04T10:00:10;27.80;;;15.77;;
20857;SDS011;10589;53.636;10.012;2023-12-04T10:02:43;27.97;;;15.17;;
20857;SDS011;10589;53.636;10.012;2023-12-04T10:08:16;28.77;;;15.87;;
20857;SDS011;10589;53.636;10.012;2023-12-04T10:10:42;29.27;;;16.37;;
20857;SDS011;10589;53.636;10.012;2023-12-04T10:13:09;27.97;;;15.70;;
20857;SDS011;10589;53.636;10.012;2023-12-04T10:15:42;30.83;;;15.73;;
20857;SDS011;10589;53.636;10.012;2023-12-04T10:18:27;26.97;;;14.37;;
20857;SDS011;10589;53.636;10.012;2023-12-04T10:20:55;28.50;;;15.60;;
20857;SDS011;10589;53.636;10.012;2023-12-04T10:23:43;25.43;;;14.40;;
20857;SDS011;10589;53.636;10.012;2023-12-04T10:26:25;26.63;;;15.37;;
20857;SDS011;10589;53.636;10.012;2023-12-04T10:29:05;24.10;;;14.07;;
20857;SDS011;10589;53.636;10.012;2023-12-04T10:31:34;24.40;;;14.73;;
20857;SDS011;10589;53.636;10.012;2023-12-04T10:34:03;26.23;;;14.23;;
20857;SDS011;10589;53.636;10.012;2023-12-04T10:36:29;23.70;;;14.77;;
20857;SDS011;10589;53.636;10.012;2023-12-04T10:39:02;28.30;;;15.90;;
20857;SDS011;10589;53.636;10.012;2023-12-04T10:41:35;25.23;;;15.23;;
20857;SDS011;10589;53.636;10.012;2023-12-04T10:44:09;28.93;;;15.53;;
20857;SDS011;10589;53.636;10.012;2023-12-04T10:46:52;24.33;;;14.70;;
20857;SDS011;10589;53.636;10.012;2023-12-04T10:49:33;28.43;;;14.27;;
20857;SDS011;10589;53.636;10.012;2023-12-04T10:52:00;28.00;;;14.43;;
20857;SDS011;10589;53.636;10.012;2023-12-04T10:54:27;27.83;;;14.50;;
20857;SDS011;10589;53.636;10.012;2023-12-04T10:56:53;24.20;;;14.27;;
20857;SDS011;10589;53.636;10.012;2023-12-04T10:59:30;23.67;;;14.27;;
20857;SDS011;10589;53.636;10.012;2023-12-04T11:02:05;21.73;;;14.10;;
20857;SDS011;10589;53.636;10.012;2023-12-04T11:04:33;26.07;;;14.80;;
20857;SDS011;10589;53.636;10.012;2023-12-04T11:07:08;22.27;;;13.33;;
20857;SDS011;10589;53.636;10.012;2023-12-04T11:09:44;26.17;;;14.00;;
20857;SDS011;10589;53.636;10.012;2023-12-04T11:12:16;21.97;;;13.30;;
20857;SDS011;10589;53.636;10.012;2023-12-04T11:14:44;24.10;;;13.20;;
20857;SDS011;10589;53.636;10.012;2023-12-04T11:17:37;23.43;;;13.50;;
20857;SDS011;10589;53.636;10.012;2023-12-04T11:20:13;25.23;;;13.93;;
20857;SDS011;10589;53.636;10.012;2023-12-04T11:22:56;23.73;;;13.80;;
20857;SDS011;10589;53.636;10.012;2023-12-04T11:25:32;25.63;;;13.83;;
20857;SDS011;10589;53.636;10.012;2023-12-04T11:28:36;23.77;;;13.67;;
20857;SDS011;10589;53.636;10.012;2023-12-04T11:31:05;22.23;;;13.07;;
20857;SDS011;10589;53.636;10.012;2023-12-04T11:33:44;21.67;;;13.03;;
20857;SDS011;10589;53.636;10.012;2023-12-04T11:36:13;24.20;;;14.40;;
20857;SDS011;10589;53.636;10.012;2023-12-04T11:38:44;22.53;;;13.90;;
20857;SDS011;10589;53.636;10.012;2023-12-04T11:41:17;25.17;;;14.33;;
20857;SDS011;10589;53.636;10.012;2023-12-04T11:43:48;25.90;;;13.83;;
20857;SDS011;10589;53.636;10.012;2023-12-04T11:46:25;20.67;;;13.13;;
20857;SDS011;10589;53.636;10.012;2023-12-04T11:51:55;28.00;;;13.37;;
20857;SDS011;10589;53.636;10.012;2023-12-04T11:57:23;21.50;;;13.03;;
20857;SDS011;10589;53.636;10.012;2023-12-04T12:00:42;24.83;;;13.80;;
20857;SDS011;10589;53.636;10.012;2023-12-04T12:03:06;22.20;;;13.57;;
20857;SDS011;10589;53.636;10.012;2023-12-04T12:05:36;23.90;;;13.53;;
20857;SDS011;10589;53.636;10.012;2023-12-04T12:08:04;28.67;;;13.23;;
20857;SDS011;10589;53.636;10.012;2023-12-04T12:10:37;25.87;;;13.73;;
20857;SDS011;10589;53.636;10.012;2023-12-04T12:13:03;20.87;;;13.20;;
20857;SDS011;10589;53.636;10.012;2023-12-04T12:15:55;25.10;;;12.87;;
20857;SDS011;10589;53.636;10.012;2023-12-04T12:18:31;23.07;;;13.03;;
20857;SDS011;10589;53.636;10.012;2023-12-04T12:21:20;21.70;;;13.43;;
20857;SDS011;10589;53.636;10.012;2023-12-04T12:24:02;26.73;;;12.83;;
20857;SDS011;10589;53.636;10.012;2023-12-04T12:26:38;24.97;;;13.27;;
20857;SDS011;10589;53.636;10.012;2023-12-04T12:29:04;22.90;;;13.77;;
20857;SDS011;10589;53.636;10.012;2023-12-04T12:31:34;23.57;;;13.10;;
20857;SDS011;10589;53.636;10.012;2023-12-04T12:34:03;22.60;;;13.17;;
20857;SDS011;10589;53.636;10.012;2023-12-04T12:36:38;22.97;;;13.70;;
20857;SDS011;10589;53.636;10.012;2023-12-04T12:39:05;25.13;;;13.20;;
20857;SDS011;10589;53.636;10.012;2023-12-04T12:41:36;23.10;;;13.93;;
20857;SDS011;10589;53.636;10.012;2023-12-04T12:44:08;24.40;;;13.17;;
20857;SDS011;10589;53.636;10.012;2023-12-04T12:46:36;22.43;;;13.67;;
20857;SDS011;10589;53.636;10.012;2023-12-04T12:49:13;23.47;;;13.63;;
20857;SDS011;10589;53.636;10.012;2023-12-04T12:51:42;23.07;;;14.00;;
20857;SDS011;10589;53.636;10.012;2023-12-04T12:54:11;27.40;;;15.00;;
20857;SDS011;10589;53.636;10.012;2023-12-04T12:56:47;20.83;;;12.63;;
20857;SDS011;10589;53.636;10.012;2023-12-04T12:59:13;22.90;;;13.77;;
20857;SDS011;10589;53.636;10.012;2023-12-04T13:01:38;20.73;;;13.10;;
20857;SDS011;10589;53.636;10.012;2023-12-04T13:04:13;25.47;;;13.83;;
20857;SDS011;10589;53.636;10.012;2023-12-04T13:06:40;25.90;;;14.13;;
20857;SDS011;10589;53.636;10.012;2023-12-04T13:09:06;23.70;;;13.67;;
20857;SDS011;10589;53.636;10.012;2023-12-04T13:11:38;21.50;;;13.33;;
20857;SDS011;10589;53.636;10.012;2023-12-04T13:14:06;24.77;;;15.07;;
20857;SDS011;10589;53.636;10.012;2023-12-04T13:16:32;25.70;;;13.93;;
20857;SDS011;10589;53.636;10.012;2023-12-04T13:18:58;27.93;;;14.93;;
20857;SDS011;10589;53.636;10.012;2023-12-04T13:21:27;25.73;;;14.87;;
20857;SDS011;10589;53.636;10.012;2023-12-04T13:23:59;24.30;;;14.03;;
20857;SDS011;10589;53.636;10.012;2023-12-04T13:26:31;23.90;;;14.27;;
20857;SDS011;10589;53.636;10.012;2023-12-04T13:29:13;24.07;;;13.97;;
20857;SDS011;10589;53.636;10.012;2023-12-04T13:31:46;26.67;;;14.97;;
20857;SDS011;10589;53.636;10.012;2023-12-04T13:34:17;26.13;;;15.30;;
20857;SDS011;10589;53.636;10.012;2023-12-04T13:36:43;24.23;;;14.20;;
20857;SDS011;10589;53.636;10.012;2023-12-04T13:39:09;23.33;;;14.40;;
20857;SDS011;10589;53.636;10.012;2023-12-04T13:42:10;23.33;;;14.40;;
20857;SDS011;10589;53.636;10.012;2023-12-04T13:45:00;27.33;;;15.20;;
20857;SDS011;10589;53.636;10.012;2023-12-04T13:47:37;26.63;;;15.10;;
20857;SDS011;10589;53.636;10.012;2023-12-04T13:50:07;25.43;;;14.47;;
20857;SDS011;10589;53.636;10.012;2023-12-04T13:52:36;24.13;;;14.77;;
20857;SDS011;10589;53.636;10.012;2023-12-04T13:55:09;24.23;;;14.87;;
20857;SDS011;10589;53.636;10.012;2023-12-04T13:57:51;25.33;;;14.37;;
20857;SDS011;10589;53.636;10.012;2023-12-04T14:00:34;23.07;;;13.50;;
20857;SDS011;10589;53.636;10.012;2023-12-04T14:03:03;25.80;;;14.80;;
20857;SDS011;10589;53.636;10.012;2023-12-04T14:05:34;28.30;;;15.57;;
20857;SDS011;10589;53.636;10.012;2023-12-04T14:08:22;24.17;;;14.30;;
20857;SDS011;10589;53.636;10.012;2023-12-04T14:10:51;24.60;;;13.80;;
20857;SDS011;10589;53.636;10.012;2023-12-04T14:13:17;24.53;;;14.50;;
20857;SDS011;10589;53.636;10.012;2023-12-04T14:15:43;25.67;;;14.60;;
20857;SDS011;10589;53.636;10.012;2023-12-04T14:18:17;23.83;;;14.00;;
20857;SDS011;10589;53.636;10.012;2023-12-04T14:20:42;22.40;;;14.43;;
20857;SDS011;10589;53.636;10.012;2023-12-04T14:23:19;24.60;;;14.40;;
20857;SDS011;10589;53.636;10.012;2023-12-04T14:25:51;26.10;;;14.40;;
20857;SDS011;10589;53.636;10.012;2023-12-04T14:28:17;24.03;;;14.03;;
20857;SDS011;10589;53.636;10.012;2023-12-04T14:30:42;28.17;;;14.17;;
20857;SDS011;10589;53.636;10.012;2023-12-04T14:33:08;28.63;;;15.37;;
20857;SDS011;10589;53.636;10.012;2023-12-04T14:35:34;24.03;;;13.27;;
20857;SDS011;10589;53.636;10.012;2023-12-04T14:38:02;24.60;;;14.53;;
20857;SDS011;10589;53.636;10.012;2023-12-04T14:40:28;25.57;;;14.13;;
20857;SDS011;10589;53.636;10.012;2023-12-04T14:42:54;25.77;;;14.67;;
20857;SDS011;10589;53.636;10.012;2023-12-04T14:45:19;26.03;;;13.63;;
20857;SDS011;10589;53.636;10.012;2023-12-04T14:47:46;25.20;;;13.67;;
20857;SDS011;10589;53.636;10.012;2023-12-04T14:50:14;25.30;;;14.73;;
20857;SDS011;10589;53.636;10.012;2023-12-04T14:52:40;25.73;;;14.27;;
20857;SDS011;10589;53.636;10.012;2023-12-04T14:55:15;24.47;;;14.33;;
20857;SDS011;10589;53.636;10.012;2023-12-04T14:58:07;25.57;;;14.23;;
20857;SDS011;10589;53.636;10.012;2023-12-04T15:00:38;29.97;;;14.90;;
20857;SDS011;10589;53.636;10.012;2023-12-04T15:03:27;25.70;;;14.87;;
20857;SDS011;10589;53.636;10.012;2023-12-04T15:06:11;23.67;;;13.47;;
20857;SDS011;10589;53.636;10.012;2023-12-04T15:08:37;22.27;;;13.37;;
20857;SDS011;10589;53.636;10.012;2023-12-04T15:11:11;26.10;;;14.23;;
20857;SDS011;10589;53.636;10.012;2023-12-04T15:13:49;22.10;;;12.83;;
20857;SDS011;10589;53.636;10.012;2023-12-04T15:16:41;25.23;;;13.83;;
20857;SDS011;10589;53.636;10.012;2023-12-04T15:19:14;23.67;;;13.90;;
20857;SDS011;10589;53.636;10.012;2023-12-04T15:22:01;24.73;;;14.23;;
20857;SDS011;10589;53.636;10.012;2023-12-04T15:24:27;25.00;;;13.93;;
20857;SDS011;10589;53.636;10.012;2023-12-04T15:26:53;25.80;;;14.17;;
20857;SDS011;10589;53.636;10.012;2023-12-04T15:29:19;26.13;;;14.17;;
20857;SDS011;10589;53.636;10.012;2023-12-04T15:31:46;23.57;;;13.20;;
20857;SDS011;10589;53.636;10.012;2023-12-04T15:34:12;23.43;;;13.57;;
20857;SDS011;10589;53.636;10.012;2023-12-04T15:36:38;24.27;;;13.40;;
20857;SDS011;10589;53.636;10.012;2023-12-04T15:39:03;23.37;;;13.73;;
20857;SDS011;10589;53.636;10.012;2023-12-04T15:41:30;20.43;;;12.80;;
20857;SDS011;10589;53.636;10.012;2023-12-04T15:43:55;22.47;;;13.83;;
20857;SDS011;10589;53.636;10.012;2023-12-04T15:46:21;22.03;;;12.60;;
20857;SDS011;10589;53.636;10.012;2023-12-04T15:48:47;23.43;;;14.00;;
20857;SDS011;10589;53.636;10.012;2023-12-04T15:51:13;22.07;;;12.67;;
20857;SDS011;10589;53.636;10.012;2023-12-04T15:53:39;21.90;;;13.90;;
20857;SDS011;10589;53.636;10.012;2023-12-04T15:56:05;24.87;;;13.70;;
20857;SDS011;10589;53.636;10.012;2023-12-04T15:58:32;20.43;;;12.43;;
20857;SDS011;10589;53.636;10.012;2023-12-04T16:01:01;21.43;;;12.67;;
20857;SDS011;10589;53.636;10.012;2023-12-04T16:03:29;20.43;;;12.73;;
20857;SDS011;10589;53.636;10.012;2023-12-04T16:05:55;21.73;;;12.27;;
20857;SDS011;10589;53.636;10.012;2023-12-04T16:08:21;20.67;;;12.70;;
20857;SDS011;10589;53.636;10.012;2023-12-04T16:10:46;19.43;;;11.73;;
20857;SDS011;10589;53.636;10.012;2023-12-04T16:13:13;22.67;;;12.73;;
20857;SDS011;10589;53.636;10.012;2023-12-04T16:15:40;22.67;;;12.37;;
20857;SDS011;10589;53.636;10.012;2023-12-04T16:18:11;21.57;;;12.23;;
20857;SDS011;10589;53.636;10.012;2023-12-04T16:20:37;20.30;;;12.20;;
20857;SDS011;10589;53.636;10.012;2023-12-04T16:23:03;21.07;;;12.63;;
20857;SDS011;10589;53.636;10.012;2023-12-04T16:25:28;18.77;;;11.30;;
20857;SDS011;10589;53.636;10.012;2023-12-04T16:27:54;20.07;;;11.63;;
20857;SDS011;10589;53.636;10.012;2023-12-04T16:30:22;19.27;;;11.30;;
20857;SDS011;10589;53.636;10.012;2023-12-04T16:32:48;18.77;;;11.03;;
20857;SDS011;10589;53.636;10.012;2023-12-04T16:35:16;16.33;;;11.00;;
20857;SDS011;10589;53.636;10.012;2023-12-04T16:37:42;17.37;;;10.80;;
20857;SDS011;10589;53.636;10.012;2023-12-04T16:40:08;18.30;;;11.33;;
20857;SDS011;10589;53.636;10.012;2023-12-04T16:42:35;19.23;;;11.53;;
20857;SDS011;10589;53.636;10.012;2023-12-04T16:45:00;19.10;;;10.80;;
20857;SDS011;10589;53.636;10.012;2023-12-04T16:47:26;17.87;;;11.27;;
20857;SDS011;10589;53.636;10.012;2023-12-04T16:49:54;17.17;;;10.47;;
20857;SDS011;10589;53.636;10.012;2023-12-04T16:52:19;16.73;;;10.57;;
20857;SDS011;10589;53.636;10.012;2023-12-04T16:54:45;15.90;;;10.00;;
20857;SDS011;10589;53.636;10.012;2023-12-04T16:57:16;16.13;;;10.27;;
20857;SDS011;10589;53.636;10.012;2023-12-04T16:59:45;18.13;;;10.23;;
20857;SDS011;10589;53.636;10.012;2023-12-04T17:02:11;16.33;;;10.20;;
20857;SDS011;10589;53.636;10.012;2023-12-04T17:04:38;18.37;;;10.77;;
20857;SDS011;10589;53.636;10.012;2023-12-04T17:07:04;15.57;;;9.60;;
20857;SDS011;10589;53.636;10.012;2023-12-04T17:09:30;16.17;;;10.20;;
20857;SDS011;10589;53.636;10.012;2023-12-04T17:11:56;17.63;;;9.77;;
20857;SDS011;10589;53.636;10.012;2023-12-04T17:14:22;19.77;;;10.43;;
20857;SDS011;10589;53.636;10.012;2023-12-04T17:16:48;17.53;;;10.03;;
20857;SDS011;10589;53.636;10.012;2023-12-04T17:19:13;17.17;;;10.00;;
20857;SDS011;10589;53.636;10.012;2023-12-04T17:21:39;15.70;;;9.87;;
20857;SDS011;10589;53.636;10.012;2023-12-04T17:24:05;15.17;;;9.20;;
20857;SDS011;10589;53.636;10.012;2023-12-04T17:26:32;16.53;;;10.33;;
20857;SDS011;10589;53.636;10.012;2023-12-04T17:28:58;15.07;;;8.87;;
20857;SDS011;10589;53.636;10.012;2023-12-04T17:31:23;14.03;;;9.53;;
20857;SDS011;10589;53.636;10.012;2023-12-04T17:33:49;16.70;;;10.13;;
20857;SDS011;10589;53.636;10.012;2023-12-04T17:36:14;13.73;;;9.13;;
20857;SDS011;10589;53.636;10.012;2023-12-04T17:38:40;16.43;;;9.30;;
20857;SDS011;10589;53.636;10.012;2023-12-04T17:41:09;15.03;;;9.17;;
20857;SDS011;10589;53.636;10.012;2023-12-04T17:43:36;16.70;;;8.67;;
20857;SDS011;10589;53.636;10.012;2023-12-04T17:46:01;15.23;;;9.43;;
20857;SDS011;10589;53.636;10.012;2023-12-04T17:48:27;14.03;;;8.67;;
20857;SDS011;10589;53.636;10.012;2023-12-04T17:50:52;13.47;;;8.60;;
20857;SDS011;10589;53.636;10.012;2023-12-04T17:53:18;12.50;;;8.83;;
20857;SDS011;10589;53.636;10.012;2023-12-04T17:55:44;13.13;;;8.00;;
20857;SDS011;10589;53.636;10.012;2023-12-04T17:58:10;12.97;;;8.73;;
20857;SDS011;10589;53.636;10.012;2023-12-04T18:00:38;14.80;;;8.77;;
20857;SDS011;10589;53.636;10.012;2023-12-04T18:03:07;13.77;;;7.70;;
20857;SDS011;10589;53.636;10.012;2023-12-04T18:05:33;12.77;;;7.90;;
20857;SDS011;10589;53.636;10.012;2023-12-04T18:07:59;11.77;;;7.70;;
20857;SDS011;10589;53.636;10.012;2023-12-04T18:10:25;13.57;;;7.70;;
20857;SDS011;10589;53.636;10.012;2023-12-04T18:12:51;12.73;;;8.03;;
20857;SDS011;10589;53.636;10.012;2023-12-04T18:15:16;14.10;;;7.90;;
20857;SDS011;10589;53.636;10.012;2023-12-04T18:17:42;13.00;;;8.03;;
20857;SDS011;10589;53.636;10.012;2023-12-04T18:20:11;17.60;;;7.70;;
20857;SDS011;10589;53.636;10.012;2023-12-04T18:22:42;12.47;;;8.10;;
20857;SDS011;10589;53.636;10.012;2023-12-04T18:25:09;12.53;;;7.67;;
20857;SDS011;10589;53.636;10.012;2023-12-04T18:27:36;12.30;;;7.80;;
20857;SDS011;10589;53.636;10.012;2023-12-04T18:30:02;12.50;;;7.97;;
20857;SDS011;10589;53.636;10.012;2023-12-04T18:32:32;10.20;;;7.23;;
20857;SDS011;10589;53.636;10.012;2023-12-04T18:34:59;11.80;;;7.67;;
20857;SDS011;10589;53.636;10.012;2023-12-04T18:40:14;12.40;;;7.93;;
20857;SDS011;10589;53.636;10.012;2023-12-04T18:42:40;12.90;;;7.50;;
20857;SDS011;10589;53.636;10.012;2023-12-04T18:45:06;12.93;;;7.93;;
20857;SDS011;10589;53.636;10.012;2023-12-04T18:47:33;11.20;;;6.93;;
20857;SDS011;10589;53.636;10.012;2023-12-04T18:50:03;11.37;;;7.10;;
20857;SDS011;10589;53.636;10.012;2023-12-04T18:52:30;12.10;;;7.73;;
20857;SDS011;10589;53.636;10.012;2023-12-04T18:54:57;11.90;;;7.57;;
20857;SDS011;10589;53.636;10.012;2023-12-04T18:57:22;12.37;;;7.43;;
20857;SDS011;10589;53.636;10.012;2023-12-04T18:59:49;11.87;;;7.23;;
20857;SDS011;10589;53.636;10.012;2023-12-04T19:02:15;11.23;;;7.20;;
20857;SDS011;10589;53.636;10.012;2023-12-04T19:04:41;11.90;;;7.13;;
20857;SDS011;10589;53.636;10.012;2023-12-04T19:07:09;10.50;;;7.10;;
20857;SDS011;10589;53.636;10.012;2023-12-04T19:09:35;10.17;;;6.83;;
20857;SDS011;10589;53.636;10.012;2023-12-04T19:12:03;10.53;;;6.90;;
20857;SDS011;10589;53.636;10.012;2023-12-04T19:14:30;7.87;;;5.97;;
20857;SDS011;10589;53.636;10.012;2023-12-04T19:16:56;9.70;;;6.37;;
20857;SDS011;10589;53.636;10.012;2023-12-04T19:19:26;11.87;;;7.03;;